createdAt,value
2023-10-19T00:01:29.286Z,14.40
2023-10-19T00:04:00.071Z,14.39
2023-10-19T00:06:26.860Z,14.49
2023-10-19T00:08:53.880Z,14.39
2023-10-19T00:11:25.227Z,14.48
2023-10-19T00:13:51.966Z,14.57
2023-10-19T00:16:19.176Z,14.52
2023-10-19T00:18:49.643Z,14.43
2023-10-19T00:21:25.482Z,14.45
2023-10-19T00:23:59.372Z,14.54
2023-10-19T00:26:31.327Z,14.63
2023-10-19T00:29:06.482Z,14.76
2023-10-19T00:31:37.717Z,14.73
2023-10-19T00:34:04.907Z,14.84
2023-10-19T00:36:32.073Z,14.82
2023-10-19T00:39:01.432Z,14.88
2023-10-19T00:41:32.085Z,14.87
2023-10-19T00:44:12.643Z,14.97
2023-10-19T00:46:40.414Z,15.18
2023-10-19T00:49:08.519Z,15.05
2023-10-19T00:51:37.936Z,14.99
2023-10-19T00:54:22.893Z,15.03
2023-10-19T00:56:49.843Z,15.06
2023-10-19T00:59:30.923Z,15.05
2023-10-19T01:02:16.831Z,15.33
2023-10-19T01:04:57.996Z,15.31
2023-10-19T01:07:28.100Z,15.11
2023-10-19T01:09:57.827Z,15.16
2023-10-19T01:12:34.152Z,15.08
2023-10-19T01:15:17.776Z,15.17
2023-10-19T01:17:52.830Z,15.01
2023-10-19T01:20:24.048Z,15.11
2023-10-19T01:23:11.648Z,15.11
2023-10-19T01:25:55.540Z,14.98
2023-10-19T01:28:51.018Z,15.12
2023-10-19T01:31:28.648Z,15.11
2023-10-19T01:33:57.048Z,15.08
2023-10-19T01:36:24.290Z,15.27
2023-10-19T01:38:55.591Z,15.30
2023-10-19T01:41:24.624Z,15.25
2023-10-19T01:43:55.665Z,15.35
2023-10-19T01:46:32.661Z,15.37
2023-10-19T01:48:59.354Z,15.55
2023-10-19T01:51:29.450Z,15.50
2023-10-19T01:54:01.657Z,15.67
2023-10-19T01:56:28.810Z,15.75
2023-10-19T01:58:55.954Z,15.95
2023-10-19T02:01:28.945Z,15.90
2023-10-19T02:04:01.126Z,15.82
2023-10-19T02:06:37.119Z,15.85
2023-10-19T02:09:22.638Z,15.84
2023-10-19T02:11:53.791Z,15.81
2023-10-19T02:14:21.024Z,15.84
2023-10-19T02:16:53.896Z,15.87
2023-10-19T02:19:22.158Z,15.91
2023-10-19T02:21:53.780Z,16.10
2023-10-19T02:24:20.772Z,16.42
2023-10-19T02:26:52.361Z,16.19
2023-10-19T02:29:19.528Z,16.37
2023-10-19T02:31:48.711Z,16.37
2023-10-19T02:34:18.372Z,16.39
2023-10-19T02:36:46.402Z,16.34
2023-10-19T02:39:15.204Z,16.82
2023-10-19T02:41:50.778Z,16.89
2023-10-19T02:44:18.481Z,16.47
2023-10-19T02:46:51.397Z,16.27
2023-10-19T02:49:21.799Z,16.30
2023-10-19T02:51:50.378Z,16.44
2023-10-19T02:54:25.468Z,16.85
2023-10-19T02:56:57.832Z,16.86
2023-10-19T02:59:25.910Z,16.86
2023-10-19T03:02:12.918Z,17.00
2023-10-19T03:04:42.925Z,17.00
2023-10-19T03:07:10.975Z,17.04
2023-10-19T03:09:37.929Z,16.88
2023-10-19T03:12:11.422Z,16.97
2023-10-19T03:14:38.638Z,17.04
2023-10-19T03:17:06.335Z,16.91
2023-10-19T03:19:33.171Z,16.75
2023-10-19T03:22:02.616Z,17.22
2023-10-19T03:24:41.707Z,17.51
2023-10-19T03:27:17.994Z,17.70
2023-10-19T03:29:54.105Z,17.74
2023-10-19T03:32:23.357Z,17.88
2023-10-19T03:34:50.687Z,17.77
2023-10-19T03:37:20.744Z,17.64
2023-10-19T03:39:47.895Z,17.60
2023-10-19T03:42:15.130Z,17.72
2023-10-19T03:44:51.231Z,17.57
2023-10-19T03:47:21.916Z,17.55
2023-10-19T03:49:49.806Z,17.60
2023-10-19T03:52:16.500Z,17.70
2023-10-19T03:54:44.279Z,17.67
2023-10-19T03:57:26.317Z,17.72
2023-10-19T04:00:00.191Z,17.85
2023-10-19T04:02:36.348Z,17.94
2023-10-19T04:05:04.662Z,17.52
2023-10-19T04:07:34.694Z,17.42
2023-10-19T04:10:07.314Z,17.48
2023-10-19T04:12:38.128Z,17.51
2023-10-19T04:15:17.804Z,17.95
2023-10-19T04:17:48.329Z,17.92
2023-10-19T04:20:18.822Z,17.68
2023-10-19T04:22:54.374Z,17.52
2023-10-19T04:25:21.748Z,17.32
2023-10-19T04:27:49.935Z,17.48
2023-10-19T04:30:23.098Z,17.32
2023-10-19T04:32:51.688Z,17.33
2023-10-19T04:35:25.298Z,17.79
2023-10-19T04:37:53.304Z,17.21
2023-10-19T04:40:21.039Z,17.21
2023-10-19T04:42:51.634Z,17.22
2023-10-19T04:45:19.063Z,17.57
2023-10-19T04:47:45.859Z,17.29
2023-10-19T04:50:12.551Z,17.08
2023-10-19T04:52:39.637Z,17.17
2023-10-19T04:55:07.066Z,17.26
2023-10-19T04:57:33.607Z,17.33
2023-10-19T05:00:00.281Z,17.44
2023-10-19T05:02:27.283Z,17.45
2023-10-19T05:04:54.798Z,17.51
2023-10-19T05:07:21.506Z,17.27
2023-10-19T05:09:48.434Z,17.36
2023-10-19T05:12:15.890Z,17.35
2023-10-19T05:14:43.662Z,17.21
2023-10-19T05:17:11.122Z,17.13
2023-10-19T05:19:38.984Z,17.30
2023-10-19T05:22:10.270Z,17.21
2023-10-19T05:24:37.234Z,17.36
2023-10-19T05:27:04.694Z,17.45
2023-10-19T05:29:34.424Z,17.54
2023-10-19T05:32:01.832Z,17.53
2023-10-19T05:34:30.686Z,17.61
2023-10-19T05:37:00.104Z,17.66
2023-10-19T05:39:29.965Z,17.67
2023-10-19T05:41:56.800Z,17.69
2023-10-19T05:44:25.929Z,17.82
2023-10-19T05:46:52.557Z,17.64
2023-10-19T05:49:19.204Z,17.69
2023-10-19T05:51:45.820Z,17.74
2023-10-19T05:54:13.460Z,17.87
2023-10-19T05:56:40.431Z,17.89
2023-10-19T05:59:07.794Z,17.93
2023-10-19T06:01:34.702Z,18.02
2023-10-19T06:04:01.531Z,18.12
2023-10-19T06:06:28.321Z,18.18
2023-10-19T06:08:55.191Z,17.94
2023-10-19T06:11:22.677Z,18.01
2023-10-19T06:13:49.481Z,18.01
2023-10-19T06:16:16.228Z,18.05
2023-10-19T06:18:44.808Z,18.21
2023-10-19T06:21:13.321Z,18.25
2023-10-19T06:23:39.883Z,18.15
2023-10-19T06:26:12.865Z,18.15
2023-10-19T06:28:41.831Z,18.16
2023-10-19T06:31:09.452Z,18.19
2023-10-19T06:33:37.077Z,18.14
2023-10-19T06:36:04.370Z,18.13
2023-10-19T06:38:32.557Z,18.14
2023-10-19T06:41:00.812Z,18.03
2023-10-19T06:43:31.847Z,17.88
2023-10-19T06:46:01.446Z,18.04
2023-10-19T06:48:28.377Z,18.09
2023-10-19T06:50:57.449Z,18.08
2023-10-19T06:53:24.042Z,18.10
2023-10-19T06:55:50.659Z,18.07
2023-10-19T06:58:20.783Z,18.07
2023-10-19T07:00:57.301Z,18.04
2023-10-19T07:03:24.055Z,18.14
2023-10-19T07:05:52.835Z,18.24
2023-10-19T07:08:20.289Z,18.27
2023-10-19T07:10:46.962Z,18.19
2023-10-19T07:13:13.679Z,18.25
2023-10-19T07:15:42.554Z,18.15
2023-10-19T07:18:12.492Z,18.11
2023-10-19T07:20:40.635Z,18.21
2023-10-19T07:23:27.523Z,18.23
2023-10-19T07:25:57.460Z,18.42
2023-10-19T07:28:30.886Z,18.54
2023-10-19T07:30:58.094Z,18.32
2023-10-19T07:33:25.172Z,18.33
2023-10-19T07:35:53.977Z,18.24
2023-10-19T07:38:23.720Z,18.20
2023-10-19T07:40:54.081Z,18.32
2023-10-19T07:43:21.643Z,18.28
2023-10-19T07:45:49.208Z,18.30
2023-10-19T07:48:16.272Z,18.36
2023-10-19T07:50:43.428Z,18.42
2023-10-19T07:53:10.929Z,18.38
2023-10-19T07:55:39.767Z,18.41
2023-10-19T07:58:09.396Z,18.43
2023-10-19T08:00:36.346Z,18.47
2023-10-19T08:03:05.388Z,18.69
2023-10-19T08:05:33.192Z,18.71
2023-10-19T08:08:01.334Z,18.75
2023-10-19T08:10:28.300Z,18.72
2023-10-19T08:12:56.301Z,18.70
2023-10-19T08:15:23.187Z,18.80
2023-10-19T08:17:51.889Z,18.94
2023-10-19T08:20:24.285Z,18.91
2023-10-19T08:22:58.152Z,18.98
2023-10-19T08:25:33.623Z,18.97
2023-10-19T08:28:03.695Z,18.75
2023-10-19T08:30:30.345Z,18.83
2023-10-19T08:32:59.060Z,18.83
2023-10-19T08:35:26.404Z,19.16
2023-10-19T08:37:58.649Z,19.38
2023-10-19T08:40:27.995Z,19.18
2023-10-19T08:42:56.117Z,19.17
2023-10-19T08:45:23.072Z,18.92
2023-10-19T08:47:59.080Z,18.99
2023-10-19T08:50:35.382Z,18.94
2023-10-19T08:53:06.759Z,18.95
2023-10-19T08:55:45.887Z,18.97
2023-10-19T08:58:17.418Z,19.28
2023-10-19T09:00:50.209Z,19.33
2023-10-19T09:03:18.556Z,19.42
2023-10-19T09:05:48.741Z,19.41
2023-10-19T09:08:17.855Z,19.47
2023-10-19T09:10:46.461Z,19.67
2023-10-19T09:13:15.364Z,19.76
2023-10-19T09:15:42.542Z,19.63
2023-10-19T09:18:20.690Z,19.54
2023-10-19T09:21:08.594Z,19.57
2023-10-19T09:23:37.261Z,19.75
2023-10-19T09:26:06.512Z,19.81
2023-10-19T09:28:37.113Z,19.93
2023-10-19T09:31:04.525Z,19.84
2023-10-19T09:33:35.131Z,19.78
2023-10-19T09:36:05.846Z,19.79
2023-10-19T09:38:34.048Z,19.89
2023-10-19T09:41:01.336Z,19.83
2023-10-19T09:43:39.720Z,19.93
2023-10-19T09:46:10.475Z,19.96
2023-10-19T09:48:43.319Z,19.82
2023-10-19T09:53:43.296Z,19.80
2023-10-19T09:56:16.375Z,19.88
2023-10-19T09:58:50.285Z,19.84
2023-10-19T10:01:17.315Z,20.12
2023-10-19T10:03:49.904Z,20.17
2023-10-19T10:06:21.504Z,20.38
2023-10-19T10:08:49.656Z,20.24
2023-10-19T10:11:20.238Z,20.19
2023-10-19T10:13:51.816Z,20.28
2023-10-19T10:16:25.144Z,20.42
2023-10-19T10:19:00.719Z,20.36
2023-10-19T10:21:28.105Z,20.04
2023-10-19T10:23:56.224Z,20.29
2023-10-19T10:26:27.585Z,20.57
2023-10-19T10:29:15.902Z,20.59
2023-10-19T10:31:47.259Z,20.44
2023-10-19T10:34:39.171Z,20.60
2023-10-19T10:37:09.202Z,20.96
2023-10-19T10:39:37.530Z,21.05
2023-10-19T10:42:07.188Z,20.89
2023-10-19T10:44:41.921Z,20.90
2023-10-19T10:47:14.386Z,20.83
2023-10-19T10:49:51.548Z,20.69
2023-10-19T10:52:30.778Z,20.49
2023-10-19T10:55:08.241Z,20.63
2023-10-19T10:57:35.199Z,20.97
2023-10-19T11:00:10.830Z,20.81
2023-10-19T11:02:43.643Z,20.66
2023-10-19T11:05:13.486Z,20.78
2023-10-19T11:07:41.002Z,21.00
2023-10-19T11:10:08.148Z,21.03
2023-10-19T11:12:34.691Z,21.21
2023-10-19T11:15:01.585Z,21.29
2023-10-19T11:17:33.061Z,21.32
2023-10-19T11:20:00.379Z,21.35
2023-10-19T11:22:27.645Z,21.17
2023-10-19T11:24:55.785Z,21.15
2023-10-19T11:27:29.078Z,21.25
2023-10-19T11:29:59.221Z,21.32
2023-10-19T11:32:26.918Z,21.38
2023-10-19T11:34:55.687Z,21.35
2023-10-19T11:37:22.331Z,21.27
2023-10-19T11:39:50.946Z,21.12
2023-10-19T11:42:22.007Z,21.17
2023-10-19T11:44:48.769Z,21.25
2023-10-19T11:47:15.910Z,21.35
2023-10-19T11:49:42.649Z,21.48
2023-10-19T11:52:09.242Z,21.50
2023-10-19T11:54:38.697Z,21.42
2023-10-19T11:57:06.481Z,21.52
2023-10-19T11:59:33.051Z,21.46
2023-10-19T12:02:01.963Z,21.19
2023-10-19T12:04:28.941Z,21.40
2023-10-19T12:06:57.289Z,21.54
2023-10-19T12:09:25.690Z,21.48
2023-10-19T12:11:55.176Z,21.67
2023-10-19T12:14:22.304Z,21.62
2023-10-19T12:16:49.027Z,21.71
2023-10-19T12:19:16.402Z,21.76
2023-10-19T12:21:43.004Z,21.69
2023-10-19T12:24:10.096Z,21.36
2023-10-19T12:26:37.016Z,21.53
2023-10-19T12:29:08.134Z,21.54
2023-10-19T12:31:35.346Z,21.37
2023-10-19T12:34:02.376Z,21.36
2023-10-19T12:36:28.952Z,21.42
2023-10-19T12:38:55.882Z,21.57
2023-10-19T12:41:23.130Z,21.69
2023-10-19T12:43:53.258Z,21.80
2023-10-19T12:46:20.609Z,21.77
2023-10-19T12:48:50.320Z,21.90
2023-10-19T12:51:19.392Z,21.71
2023-10-19T12:53:47.149Z,21.82
2023-10-19T12:56:14.064Z,21.75
2023-10-19T12:58:42.144Z,21.89
2023-10-19T13:01:17.261Z,21.78
2023-10-19T13:03:46.569Z,22.51
2023-10-19T13:06:14.780Z,22.42
2023-10-19T13:08:44.005Z,22.36
2023-10-19T13:11:18.911Z,22.34
2023-10-19T13:13:47.261Z,22.26
2023-10-19T13:16:14.662Z,22.34
2023-10-19T13:18:41.963Z,22.12
2023-10-19T13:21:12.944Z,22.02
2023-10-19T13:23:40.315Z,21.89
2023-10-19T13:26:17.697Z,21.78
2023-10-19T13:28:45.886Z,22.05
2023-10-19T13:31:16.140Z,21.55
2023-10-19T13:33:44.973Z,21.35
2023-10-19T13:36:11.792Z,21.25
2023-10-19T13:38:38.863Z,21.07
2023-10-19T13:41:08.638Z,21.00
2023-10-19T13:43:38.524Z,20.92
2023-10-19T13:46:06.372Z,20.89
2023-10-19T13:48:37.027Z,21.18
2023-10-19T13:51:13.624Z,21.33
2023-10-19T13:53:41.143Z,21.44
2023-10-19T13:56:11.788Z,21.21
2023-10-19T13:58:39.486Z,21.04
2023-10-19T14:01:10.904Z,21.16
2023-10-19T14:03:41.056Z,21.12
2023-10-19T14:06:14.423Z,21.12
2023-10-19T14:08:41.147Z,21.03
2023-10-19T14:11:08.433Z,21.14
2023-10-19T14:13:36.723Z,21.17
2023-10-19T14:16:10.332Z,21.17
2023-10-19T14:18:40.373Z,21.09
2023-10-19T14:21:16.571Z,21.06
2023-10-19T14:23:45.524Z,21.09
2023-10-19T14:26:12.983Z,21.02
2023-10-19T14:28:39.862Z,20.96
2023-10-19T14:31:08.571Z,20.94
2023-10-19T14:33:36.615Z,20.93
2023-10-19T14:36:04.935Z,20.99
2023-10-19T14:38:32.599Z,21.06
2023-10-19T14:40:59.655Z,20.95
2023-10-19T14:43:32.765Z,21.00
2023-10-19T14:45:59.493Z,20.86
2023-10-19T14:48:26.651Z,20.77
2023-10-19T14:50:55.421Z,20.93
2023-10-19T14:53:22.027Z,21.00
2023-10-19T14:55:48.728Z,21.05
2023-10-19T14:58:15.908Z,21.03
2023-10-19T15:00:55.811Z,20.98
2023-10-19T15:03:24.956Z,21.15
2023-10-19T15:05:56.020Z,21.06
2023-10-19T15:08:27.871Z,21.18
2023-10-19T15:10:55.532Z,20.84
2023-10-19T15:13:22.448Z,20.67
2023-10-19T15:15:49.138Z,20.72
2023-10-19T15:18:15.779Z,20.72
2023-10-19T15:20:42.723Z,20.63
2023-10-19T15:23:10.791Z,20.72
2023-10-19T15:25:41.044Z,20.86
2023-10-19T15:28:09.311Z,20.71
2023-10-19T15:30:35.893Z,20.61
2023-10-19T15:33:03.708Z,20.65
2023-10-19T15:35:30.418Z,20.69
2023-10-19T15:37:57.418Z,20.55
2023-10-19T15:40:25.872Z,20.70
2023-10-19T15:42:54.796Z,20.48
2023-10-19T15:45:22.646Z,20.54
2023-10-19T15:47:51.701Z,20.61
2023-10-19T15:50:18.676Z,20.42
2023-10-19T15:52:45.849Z,20.33
2023-10-19T15:55:17.095Z,20.34
2023-10-19T15:57:43.887Z,20.32
2023-10-19T16:00:16.242Z,20.18
2023-10-19T16:02:44.306Z,20.34
2023-10-19T16:05:16.668Z,20.08
2023-10-19T16:07:44.138Z,20.08
2023-10-19T16:10:11.567Z,20.05
2023-10-19T16:12:40.519Z,20.14
2023-10-19T16:15:10.399Z,20.17
2023-10-19T16:17:37.911Z,20.16
2023-10-19T16:20:16.935Z,20.29
2023-10-19T16:22:43.889Z,20.27
2023-10-19T16:25:11.614Z,20.19
2023-10-19T16:27:39.195Z,20.12
2023-10-19T16:30:13.171Z,20.44
2023-10-19T16:32:41.611Z,20.63
2023-10-19T16:35:10.079Z,20.52
2023-10-19T16:37:36.831Z,20.00
2023-10-19T16:40:06.236Z,20.00
2023-10-19T16:42:33.715Z,19.95
2023-10-19T16:45:00.635Z,19.99
2023-10-19T16:47:27.436Z,20.17
2023-10-19T16:49:54.113Z,20.21
2023-10-19T16:52:20.727Z,19.96
2023-10-19T16:54:47.349Z,20.44
2023-10-19T16:57:13.965Z,20.61
2023-10-19T16:59:41.024Z,20.69
2023-10-19T17:02:07.834Z,20.80
2023-10-19T17:04:34.624Z,20.82
2023-10-19T17:07:01.257Z,20.85
2023-10-19T17:09:27.762Z,20.84
2023-10-19T17:11:55.117Z,21.01
2023-10-19T17:14:25.184Z,20.75
2023-10-19T17:16:51.960Z,20.68
2023-10-19T17:19:18.664Z,20.23
2023-10-19T17:21:45.319Z,20.17
2023-10-19T17:24:11.901Z,20.32
2023-10-19T17:26:38.531Z,20.32
2023-10-19T17:29:05.370Z,20.28
2023-10-19T17:31:32.326Z,19.93
2023-10-19T17:33:59.204Z,19.79
2023-10-19T17:36:25.871Z,19.76
2023-10-19T17:38:52.993Z,19.63
2023-10-19T17:41:20.553Z,19.60
2023-10-19T17:43:47.361Z,20.17
2023-10-19T17:46:15.867Z,20.15
2023-10-19T17:48:43.847Z,20.24
2023-10-19T17:51:16.563Z,19.78
2023-10-19T17:53:44.382Z,19.92
2023-10-19T17:56:11.105Z,19.62
2023-10-19T17:58:37.847Z,19.63
2023-10-19T18:01:06.003Z,19.52
2023-10-19T18:03:34.209Z,19.77
2023-10-19T18:06:01.848Z,19.88
2023-10-19T18:08:29.593Z,19.76
2023-10-19T18:10:56.934Z,19.66
2023-10-19T18:13:23.847Z,19.91
2023-10-19T18:15:50.438Z,19.79
2023-10-19T18:18:19.598Z,19.17
2023-10-19T18:20:46.822Z,19.10
2023-10-19T18:23:13.538Z,18.93
2023-10-19T18:25:43.607Z,18.92
2023-10-19T18:28:10.926Z,18.97
2023-10-19T18:30:38.129Z,19.01
2023-10-19T18:33:06.204Z,18.81
2023-10-19T18:35:33.828Z,19.07
2023-10-19T18:38:00.949Z,18.88
2023-10-19T18:40:34.281Z,19.12
2023-10-19T18:43:02.189Z,19.19
2023-10-19T18:45:28.871Z,18.85
2023-10-19T18:47:56.352Z,18.63
2023-10-19T18:50:33.454Z,18.50
2023-10-19T18:53:00.648Z,18.73
2023-10-19T18:55:28.625Z,18.63
2023-10-19T18:57:58.116Z,18.63
2023-10-19T19:00:28.116Z,18.58
2023-10-19T19:02:56.423Z,18.76
2023-10-19T19:05:23.187Z,18.92
2023-10-19T19:07:49.844Z,19.00
2023-10-19T19:10:17.020Z,19.00
2023-10-19T19:12:43.916Z,19.03
2023-10-19T19:15:11.895Z,19.00
2023-10-19T19:17:40.032Z,19.07
2023-10-19T19:20:12.253Z,19.15
2023-10-19T19:22:40.046Z,19.13
2023-10-19T19:25:07.235Z,19.09
2023-10-19T19:27:33.849Z,18.87
2023-10-19T19:30:00.741Z,19.00
2023-10-19T19:32:28.787Z,19.05
2023-10-19T19:34:55.924Z,19.16
2023-10-19T19:37:22.711Z,19.03
2023-10-19T19:39:49.294Z,18.89
2023-10-19T19:42:15.883Z,18.78
2023-10-19T19:44:43.115Z,18.87
2023-10-19T19:47:09.974Z,18.83
2023-10-19T19:49:36.567Z,18.83
2023-10-19T19:52:03.279Z,18.85
2023-10-19T19:54:30.826Z,18.93
2023-10-19T19:56:58.009Z,18.95
2023-10-19T19:59:24.726Z,18.94
2023-10-19T20:01:51.517Z,18.85
2023-10-19T20:04:18.624Z,18.79
2023-10-19T20:06:45.306Z,18.86
2023-10-19T20:09:12.169Z,18.88
2023-10-19T20:11:40.240Z,18.86
2023-10-19T20:14:07.795Z,18.87
2023-10-19T20:16:34.659Z,19.03
2023-10-19T20:19:01.369Z,19.06
2023-10-19T20:21:29.839Z,19.14
2023-10-19T20:23:57.571Z,19.18
2023-10-19T20:26:24.553Z,19.25
2023-10-19T20:28:51.318Z,19.08
2023-10-19T20:31:18.027Z,19.10
2023-10-19T20:33:44.588Z,19.05
2023-10-19T20:36:11.157Z,19.17
2023-10-19T20:38:37.775Z,19.04
2023-10-19T20:41:04.395Z,18.94
2023-10-19T20:43:30.960Z,19.07
2023-10-19T20:45:57.608Z,18.98
2023-10-19T20:48:24.175Z,18.94
2023-10-19T20:50:50.782Z,19.09
2023-10-19T20:53:17.903Z,19.10
2023-10-19T20:55:45.778Z,18.94
2023-10-19T20:58:13.392Z,18.83
2023-10-19T21:00:40.278Z,18.81
2023-10-19T21:03:07.065Z,18.80
2023-10-19T21:05:35.100Z,18.78
2023-10-19T21:08:01.850Z,18.80
2023-10-19T21:10:28.445Z,18.73
2023-10-19T21:12:55.534Z,18.72
2023-10-19T21:15:22.201Z,18.70
2023-10-19T21:17:51.040Z,18.72
2023-10-19T21:20:19.854Z,18.73
2023-10-19T21:22:49.493Z,18.79
2023-10-19T21:25:18.708Z,18.76
2023-10-19T21:27:47.829Z,18.72
2023-10-19T21:30:14.933Z,18.77
2023-10-19T21:32:43.708Z,18.78
2023-10-19T21:35:11.434Z,18.82
2023-10-19T21:37:38.733Z,18.64
2023-10-19T21:40:06.698Z,18.74
2023-10-19T21:42:33.329Z,18.68
2023-10-19T21:45:00.165Z,18.57
2023-10-19T21:47:27.074Z,19.08
2023-10-19T21:49:54.155Z,19.29
2023-10-19T21:52:25.069Z,19.62
2023-10-19T21:54:52.832Z,19.37
2023-10-19T21:57:19.438Z,18.57
2023-10-19T21:59:46.683Z,18.53
2023-10-19T22:02:13.706Z,18.55
2023-10-19T22:04:40.683Z,19.12
2023-10-19T22:07:07.952Z,19.37
2023-10-19T22:09:34.854Z,18.85
2023-10-19T22:12:01.708Z,18.50
2023-10-19T22:14:29.363Z,18.22
2023-10-19T22:16:57.412Z,18.07
2023-10-19T22:19:28.106Z,17.95
2023-10-19T22:21:55.834Z,18.01
2023-10-19T22:24:22.576Z,17.93
2023-10-19T22:26:52.290Z,18.00
2023-10-19T22:29:20.297Z,17.95
2023-10-19T22:31:48.038Z,18.18
2023-10-19T22:34:14.976Z,18.11
2023-10-19T22:36:45.599Z,18.07
2023-10-19T22:39:12.623Z,18.06
2023-10-19T22:41:39.360Z,18.04
2023-10-19T22:44:08.162Z,18.08
2023-10-19T22:46:39.910Z,18.23
2023-10-19T22:49:06.992Z,18.13
2023-10-19T22:51:33.654Z,18.22
2023-10-19T22:54:00.319Z,18.32
2023-10-19T22:56:27.107Z,18.28
2023-10-19T22:58:54.509Z,18.19
2023-10-19T23:01:21.671Z,18.33
2023-10-19T23:03:48.713Z,18.36
2023-10-19T23:06:15.482Z,18.35
2023-10-19T23:08:42.605Z,18.45
2023-10-19T23:11:10.675Z,18.51
2023-10-19T23:13:42.482Z,18.47
2023-10-19T23:16:10.269Z,18.48
2023-10-19T23:18:37.021Z,18.58
2023-10-19T23:21:04.842Z,18.44
2023-10-19T23:23:31.934Z,18.33
2023-10-19T23:26:01.643Z,18.32
2023-10-19T23:28:31.365Z,18.22
2023-10-19T23:31:08.501Z,18.18
2023-10-19T23:33:35.423Z,18.28
2023-10-19T23:36:03.160Z,18.37
2023-10-19T23:38:29.802Z,18.50
2023-10-19T23:40:56.857Z,18.52
2023-10-19T23:43:24.265Z,18.37
2023-10-19T23:45:51.103Z,18.46
2023-10-19T23:48:20.923Z,18.53
2023-10-19T23:50:49.178Z,18.55
2023-10-19T23:53:18.731Z,18.43
2023-10-19T23:55:47.073Z,18.33
2023-10-19T23:58:14.751Z,18.28
